Time;durP1;ratioP1;P1;durP2;ratioP2;P2;SDS_P1;SDS_P2;PMS_P1;PMS_P2;Temp;Humidity;BMP_temperature;BMP_pressure;BME280_temperature;BME280_humidity;BME280_pressure;Samples;Min_cycle;Max_cycle;Signal;HPM_P1;HPM_P2
2022/12/08 09:27:07;;;;;;;18.03;16.80;;;4.20;99.90;;;;;;6200138;22;1230487;-78
2022/12/08 09:29:34;;;;;;;18.93;17.30;;;4.90;99.90;;;;;;6248724;23;20195;-78
2022/12/08 09:32:01;;;;;;;17.40;16.20;;;4.70;99.90;;;;;;6248339;23;20917;-80
2022/12/08 09:34:27;;;;;;;18.50;17.10;;;4.80;99.90;;;;;;6248589;23;20407;-77
2022/12/08 09:36:54;;;;;;;18.00;16.30;;;5.00;99.90;;;;;;6248539;23;20418;-77
2022/12/08 09:39:21;;;;;;;20.10;18.50;;;5.00;99.90;;;;;;6248578;23;20412;-78
2022/12/08 09:41:50;;;;;;;17.60;16.30;;;5.00;99.90;;;;;;6249153;23;20439;-77
2022/12/08 09:44:37;;;;;;;19.07;17.53;;;5.10;99.90;;;;;;6249001;23;20721;-78
2022/12/08 09:47:12;;;;;;;18.03;16.80;;;5.20;99.90;;;;;;6248694;22;20410;-76
2022/12/08 09:49:45;;;;;;;18.40;17.10;;;5.30;99.90;;;;;;6246323;23;20403;-76
2022/12/08 09:52:20;;;;;;;18.10;16.70;;;5.60;99.90;;;;;;6248963;23;20411;-76
2022/12/08 09:54:47;;;;;;;17.67;16.43;;;6.20;99.90;;;;;;6248895;23;20438;-75
2022/12/08 10:00:06;;;;;;;17.20;16.00;;;6.30;99.90;;;;;;6210841;22;20483;-71
2022/12/08 10:02:33;;;;;;;18.70;17.20;;;6.30;99.90;;;;;;6246141;22;20451;-71
2022/12/08 10:05:00;;;;;;;19.67;18.00;;;6.10;99.90;;;;;;6247868;23;20402;-72
2022/12/08 10:07:35;;;;;;;18.30;16.80;;;6.20;99.90;;;;;;6247845;23;20895;-72
2022/12/08 10:10:12;;;;;;;17.80;16.50;;;6.20;99.90;;;;;;6248472;23;20644;-73
2022/12/08 10:12:46;;;;;;;18.30;16.97;;;6.60;99.90;;;;;;6248050;23;20466;-73
2022/12/08 10:15:39;;;;;;;18.70;17.30;;;7.00;99.90;;;;;;6248054;23;20439;-72
2022/12/08 10:18:14;;;;;;;18.70;17.40;;;6.70;99.90;;;;;;6248021;22;20399;-71
2022/12/08 10:20:43;;;;;;;17.90;16.40;;;6.90;99.90;;;;;;6248129;23;20413;-71
2022/12/08 10:23:23;;;;;;;18.07;16.33;;;7.10;99.90;;;;;;6247483;23;20415;-73
2022/12/08 10:25:52;;;;;;;18.60;17.20;;;7.40;99.90;;;;;;6246882;23;20431;-73
2022/12/08 10:28:19;;;;;;;16.97;15.80;;;7.30;99.90;;;;;;6240960;23;20415;-73
2022/12/08 10:30:47;;;;;;;17.30;16.07;;;7.50;99.90;;;;;;6241499;23;20404;-73
2022/12/08 10:33:16;;;;;;;18.43;16.63;;;7.40;99.90;;;;;;6241079;23;20902;-72
2022/12/08 10:35:45;;;;;;;17.40;15.70;;;7.40;99.90;;;;;;6241000;23;20435;-72
2022/12/08 10:38:18;;;;;;;16.90;15.50;;;7.30;99.90;;;;;;6241204;23;20454;-72
2022/12/08 10:40:47;;;;;;;18.07;16.53;;;7.70;99.90;;;;;;6241185;22;20411;-72
2022/12/08 10:43:17;;;;;;;17.70;16.50;;;7.80;99.90;;;;;;6241337;23;20430;-72
2022/12/08 10:45:44;;;;;;;16.77;15.60;;;7.80;99.90;;;;;;6241392;23;20420;-71
2022/12/08 10:48:18;;;;;;;17.50;16.20;;;7.90;99.90;;;;;;6240567;23;20416;-73
2022/12/08 10:50:46;;;;;;;16.70;15.27;;;8.00;99.90;;;;;;6241636;23;20404;-72
2022/12/08 10:53:15;;;;;;;17.57;16.33;;;8.40;99.90;;;;;;6241058;23;20411;-73
2022/12/08 10:55:45;;;;;;;15.60;14.67;;;8.70;99.90;;;;;;6241102;23;20440;-72
2022/12/08 10:58:30;;;;;;;16.20;15.17;;;9.00;99.90;;;;;;6241037;23;20797;-73
2022/12/08 11:01:01;;;;;;;15.77;14.83;;;9.30;99.00;;;;;;6240768;23;20935;-73
2022/12/08 11:03:32;;;;;;;17.90;16.70;;;9.60;98.80;;;;;;6240483;23;20965;-74
2022/12/08 11:06:01;;;;;;;17.60;16.40;;;10.00;97.10;;;;;;6240917;23;20400;-73
2022/12/08 11:08:29;;;;;;;17.90;16.80;;;10.40;95.50;;;;;;6240793;23;20729;-73
2022/12/08 11:10:55;;;;;;;17.57;16.33;;;10.40;95.00;;;;;;6240538;23;20412;-73
2022/12/08 11:13:25;;;;;;;17.30;16.27;;;9.60;96.00;;;;;;6240737;23;20434;-72
2022/12/08 11:15:53;;;;;;;16.50;15.43;;;9.50;97.40;;;;;;6240680;23;20403;-73
2022/12/08 11:18:40;;;;;;;16.40;15.40;;;10.20;96.00;;;;;;6239954;23;20915;-72
2022/12/08 11:21:11;;;;;;;16.13;15.13;;;10.20;96.20;;;;;;6240681;23;20404;-73
2022/12/08 11:23:38;;;;;;;16.20;15.10;;;11.00;93.80;;;;;;6240483;23;20404;-74
2022/12/08 11:26:12;;;;;;;16.93;15.93;;;11.20;92.70;;;;;;6239837;23;20447;-74
2022/12/08 11:28:39;;;;;;;16.33;15.17;;;11.30;92.00;;;;;;6240440;22;20407;-74
2022/12/08 11:31:16;;;;;;;16.83;15.83;;;10.70;92.50;;;;;;6240364;23;20404;-73
2022/12/08 11:33:45;;;;;;;16.03;15.10;;;10.80;93.00;;;;;;6240261;23;20404;-72
2022/12/08 11:36:14;;;;;;;15.97;15.00;;;11.50;91.80;;;;;;6240728;23;20400;-72
2022/12/08 11:38:44;;;;;;;15.70;14.57;;;11.10;91.20;;;;;;6239912;23;20892;-74
2022/12/08 11:41:14;;;;;;;16.27;15.27;;;10.30;92.00;;;;;;6240650;23;20949;-72
2022/12/08 11:43:48;;;;;;;15.57;14.40;;;10.20;92.50;;;;;;6239886;23;20439;-72
2022/12/08 11:46:21;;;;;;;15.10;14.07;;;10.10;92.30;;;;;;6239908;23;20950;-73
2022/12/08 11:48:54;;;;;;;15.30;14.47;;;9.80;94.00;;;;;;6240988;23;20408;-73
2022/12/08 11:51:29;;;;;;;15.00;14.10;;;10.30;92.60;;;;;;6240610;23;20407;-73
2022/12/08 11:54:17;;;;;;;14.37;13.53;;;11.20;91.20;;;;;;6240263;23;20404;-74
2022/12/08 11:56:47;;;;;;;15.13;14.37;;;11.20;91.00;;;;;;6240041;23;20416;-73
2022/12/08 11:59:21;;;;;;;14.37;13.60;;;11.10;88.80;;;;;;6239854;23;20404;-73
2022/12/08 12:01:48;;;;;;;14.23;13.47;;;10.80;90.20;;;;;;6240293;23;20404;-73
2022/12/08 12:04:22;;;;;;;13.37;12.60;;;10.50;90.60;;;;;;6237541;23;20933;-73
2022/12/08 12:07:33;;;;;;;15.00;14.00;;;10.30;90.60;;;;;;6238533;23;20439;-73
2022/12/08 12:10:10;;;;;;;14.97;14.03;;;9.50;91.70;;;;;;6239374;22;20400;-72
2022/12/08 12:12:51;;;;;;;14.97;13.67;;;8.70;93.80;;;;;;6238719;23;20426;-72
2022/12/08 12:15:55;;;;;;;14.80;13.50;;;8.00;95.10;;;;;;6239496;23;20402;-73
2022/12/08 12:18:27;;;;;;;14.03;13.20;;;7.70;97.10;;;;;;6238981;22;20404;-74
2022/12/08 12:20:59;;;;;;;13.90;13.20;;;7.80;97.00;;;;;;6239205;23;20804;-73
2022/12/08 12:23:34;;;;;;;14.20;13.30;;;8.00;97.10;;;;;;6239546;23;20412;-72
2022/12/08 12:26:05;;;;;;;13.30;12.43;;;8.50;96.10;;;;;;6238624;23;20964;-74
2022/12/08 12:28:41;;;;;;;13.87;13.07;;;8.90;94.70;;;;;;6236823;23;20423;-74
2022/12/08 12:31:11;;;;;;;15.60;14.30;;;9.20;94.20;;;;;;6238967;22;20741;-73
2022/12/08 12:33:38;;;;;;;13.47;12.60;;;9.20;93.40;;;;;;6239024;23;20404;-74
2022/12/08 12:36:09;;;;;;;13.63;12.73;;;8.70;94.00;;;;;;6239221;23;20399;-73
2022/12/08 12:41:25;;;;;;;13.03;12.33;;;7.90;96.10;;;;;;6238965;23;20398;-73
2022/12/08 12:44:23;;;;;;;13.03;12.30;;;7.50;97.20;;;;;;6239188;23;20414;-73
2022/12/08 12:46:56;;;;;;;13.23;12.43;;;7.30;97.70;;;;;;6239988;22;20509;-73
2022/12/08 12:49:52;;;;;;;14.23;13.07;;;7.30;97.90;;;;;;6240071;23;20411;-73
2022/12/08 12:52:40;;;;;;;13.83;12.90;;;7.10;98.40;;;;;;6240456;23;20404;-72
2022/12/08 12:55:49;;;;;;;13.33;12.53;;;7.00;98.70;;;;;;6239908;23;20412;-74
2022/12/08 12:58:22;;;;;;;15.00;13.43;;;7.10;98.50;;;;;;6228811;22;20416;-73
2022/12/08 13:00:49;;;;;;;14.30;13.40;;;7.40;98.30;;;;;;6240718;23;20404;-73
2022/12/08 13:03:17;;;;;;;12.40;11.60;;;7.60;97.90;;;;;;6240038;23;20424;-72
2022/12/08 13:05:50;;;;;;;12.80;12.10;;;7.30;98.40;;;;;;6239518;23;20951;-74
2022/12/08 13:08:22;;;;;;;13.47;12.63;;;7.50;98.70;;;;;;6240011;23;20414;-75
2022/12/08 13:10:59;;;;;;;11.97;11.30;;;7.80;97.80;;;;;;6240392;23;20404;-74
2022/12/08 13:13:27;;;;;;;13.40;12.60;;;7.60;97.50;;;;;;6239969;23;20415;-74
2022/12/08 13:15:56;;;;;;;13.23;12.53;;;7.70;97.50;;;;;;6239743;23;20498;-73
2022/12/08 13:18:26;;;;;;;12.70;12.10;;;7.40;97.80;;;;;;6239934;22;20724;-73
2022/12/08 13:20:57;;;;;;;12.97;12.27;;;7.20;97.90;;;;;;6239841;23;20491;-73
2022/12/08 13:23:30;;;;;;;12.77;11.97;;;7.40;98.30;;;;;;6239936;23;20407;-73
2022/12/08 13:26:18;;;;;;;12.87;11.93;;;7.50;98.20;;;;;;6239516;23;20475;-73
2022/12/08 13:29:21;;;;;;;13.30;12.60;;;7.50;97.60;;;;;;6240265;23;20459;-74
2022/12/08 13:31:51;;;;;;;14.10;13.30;;;7.50;97.40;;;;;;6240001;23;20743;-75
2022/12/08 13:34:27;;;;;;;12.63;12.00;;;7.60;97.30;;;;;;6240095;23;20404;-72
2022/12/08 13:37:17;;;;;;;12.70;12.10;;;7.70;97.60;;;;;;6239596;23;20426;-73
2022/12/08 13:39:51;;;;;;;12.20;11.50;;;7.50;97.20;;;;;;6239342;23;20511;-73
2022/12/08 13:42:24;;;;;;;12.90;12.00;;;7.40;97.80;;;;;;6240159;22;20416;-72
2022/12/08 13:44:56;;;;;;;13.30;12.60;;;7.40;97.80;;;;;;6239750;23;20404;-73
2022/12/08 13:47:29;;;;;;;14.03;13.10;;;7.10;98.30;;;;;;6239511;23;20450;-73
2022/12/08 13:50:01;;;;;;;13.40;12.50;;;6.90;98.80;;;;;;6239209;23;20440;-73
2022/12/08 13:52:33;;;;;;;12.03;11.23;;;6.90;98.90;;;;;;6239722;23;20404;-72
2022/12/08 13:55:03;;;;;;;12.27;11.60;;;6.90;98.60;;;;;;6239890;23;20736;-72
2022/12/08 13:57:33;;;;;;;11.50;10.90;;;6.50;99.50;;;;;;6240143;23;20407;-73
2022/12/08 14:00:02;;;;;;;12.87;11.93;;;6.30;99.90;;;;;;6239371;23;20408;-72
2022/12/08 14:02:33;;;;;;;13.83;12.80;;;6.30;99.90;;;;;;6240670;23;20439;-73
2022/12/08 14:05:00;;;;;;;14.07;13.17;;;6.20;99.90;;;;;;6241598;23;20412;-73
2022/12/08 14:07:27;;;;;;;12.63;11.73;;;6.10;99.90;;;;;;6241361;23;20439;-72
2022/12/08 14:09:54;;;;;;;11.50;10.90;;;6.20;99.90;;;;;;6241241;23;20403;-72
2022/12/08 14:12:24;;;;;;;13.20;12.30;;;6.10;99.90;;;;;;6241595;23;20408;-72
2022/12/08 14:14:53;;;;;;;13.00;12.20;;;6.10;99.90;;;;;;6241351;23;20407;-72
2022/12/08 14:17:23;;;;;;;14.13;12.90;;;6.00;99.90;;;;;;6241311;23;20895;-72
2022/12/08 14:19:55;;;;;;;13.53;12.47;;;5.90;99.90;;;;;;6240955;23;20404;-73
2022/12/08 14:22:22;;;;;;;12.43;11.73;;;5.80;99.90;;;;;;6241083;23;20903;-72
2022/12/08 14:24:51;;;;;;;13.30;12.37;;;5.80;99.90;;;;;;6241477;23;20408;-73
2022/12/08 14:27:20;;;;;;;13.23;12.33;;;5.60;99.90;;;;;;6241307;23;20440;-73
2022/12/08 14:29:51;;;;;;;12.50;11.43;;;5.60;99.90;;;;;;6241247;23;20408;-73
2022/12/08 14:32:22;;;;;;;11.37;10.77;;;5.50;99.90;;;;;;6241281;22;20447;-73
2022/12/08 14:34:53;;;;;;;12.43;11.73;;;5.50;99.90;;;;;;6241812;22;20408;-72
2022/12/08 14:37:20;;;;;;;13.43;12.33;;;5.50;99.90;;;;;;6238311;23;20493;-72
2022/12/08 14:39:47;;;;;;;13.30;12.40;;;5.50;99.90;;;;;;6241383;23;20414;-72
2022/12/08 14:42:22;;;;;;;14.13;13.23;;;5.50;99.90;;;;;;6241408;23;20754;-73
2022/12/08 14:44:56;;;;;;;13.43;12.10;;;5.50;99.90;;;;;;6242048;23;20419;-73
2022/12/08 14:47:28;;;;;;;13.80;12.80;;;5.50;99.90;;;;;;6241930;23;20431;-73
2022/12/08 14:49:55;;;;;;;13.40;12.50;;;5.40;99.90;;;;;;6241816;23;20399;-73
2022/12/08 14:52:21;;;;;;;13.13;12.13;;;5.50;99.90;;;;;;6241778;23;20415;-73
2022/12/08 14:54:50;;;;;;;11.90;11.10;;;5.50;99.90;;;;;;6242211;23;20487;-73
2022/12/08 14:57:17;;;;;;;13.30;12.37;;;5.50;99.90;;;;;;6242370;23;20400;-73
2022/12/08 14:59:45;;;;;;;12.13;11.20;;;5.40;99.90;;;;;;6242143;23;20685;-73
2022/12/08 15:02:25;;;;;;;12.80;12.00;;;5.40;99.90;;;;;;6241871;23;20763;-73
2022/12/08 15:04:57;;;;;;;12.60;11.90;;;5.30;99.90;;;;;;6241966;23;20399;-72
2022/12/08 15:07:27;;;;;;;13.33;12.43;;;5.40;99.90;;;;;;6241420;23;20434;-73
2022/12/08 15:10:25;;;;;;;12.70;12.00;;;5.40;99.90;;;;;;6241780;23;20721;-73
2022/12/08 15:13:00;;;;;;;12.43;11.77;;;5.50;99.90;;;;;;6241305;22;20411;-72
2022/12/08 15:15:27;;;;;;;13.10;12.20;;;5.50;99.90;;;;;;6241702;23;20402;-73
2022/12/08 15:18:04;;;;;;;11.60;11.00;;;5.60;99.90;;;;;;6241734;23;20400;-72
2022/12/08 15:20:39;;;;;;;13.00;12.10;;;5.50;99.90;;;;;;6242489;23;20391;-73
2022/12/08 15:23:15;;;;;;;12.13;11.23;;;5.40;99.90;;;;;;6241307;23;20388;-73
2022/12/08 15:25:42;;;;;;;12.03;11.30;;;5.50;99.90;;;;;;6241087;23;20752;-73
2022/12/08 15:28:09;;;;;;;12.40;11.70;;;5.40;99.90;;;;;;6241203;23;20458;-73
2022/12/08 15:30:36;;;;;;;12.57;11.77;;;5.40;99.90;;;;;;6240708;23;20408;-73
2022/12/08 15:33:04;;;;;;;12.40;11.80;;;5.40;99.90;;;;;;6241203;23;20423;-73
2022/12/08 15:35:31;;;;;;;12.23;11.50;;;5.30;99.90;;;;;;6241353;23;20407;-72
2022/12/08 15:37:58;;;;;;;12.77;11.77;;;5.30;99.90;;;;;;6240863;23;20426;-74
2022/12/08 15:40:26;;;;;;;12.47;11.73;;;5.30;99.90;;;;;;6241038;23;20735;-73
2022/12/08 15:42:52;;;;;;;13.00;12.10;;;5.30;99.90;;;;;;6241226;23;20403;-73
2022/12/08 15:45:26;;;;;;;12.80;12.10;;;5.20;99.90;;;;;;6241207;23;20914;-73
2022/12/08 15:47:53;;;;;;;12.97;12.27;;;5.20;99.90;;;;;;6241204;23;20455;-72
2022/12/08 15:50:23;;;;;;;12.27;11.47;;;5.10;99.90;;;;;;6241438;23;20414;-73
2022/12/08 15:52:50;;;;;;;12.53;11.80;;;5.10;99.90;;;;;;6241555;23;20404;-72
2022/12/08 15:55:19;;;;;;;12.57;11.87;;;5.10;99.90;;;;;;6241233;23;20410;-73
2022/12/08 15:57:48;;;;;;;14.40;13.30;;;5.10;99.90;;;;;;6241328;22;20410;-73
2022/12/08 16:00:26;;;;;;;12.03;11.30;;;5.10;99.90;;;;;;6241519;23;20665;-72
2022/12/08 16:02:54;;;;;;;12.47;11.57;;;5.00;99.90;;;;;;6241058;23;20990;-73
2022/12/08 16:05:22;;;;;;;12.13;11.53;;;5.10;99.90;;;;;;6241541;23;20726;-73
2022/12/08 16:07:49;;;;;;;12.03;11.03;;;5.00;99.90;;;;;;6241620;23;20443;-75
2022/12/08 16:10:18;;;;;;;13.63;12.63;;;5.00;99.90;;;;;;6239884;23;20415;-72
2022/12/08 16:15:56;;;;;;;12.57;11.67;;;5.00;99.90;;;;;;6193159;23;20738;-73
2022/12/08 16:18:26;;;;;;;12.90;12.00;;;5.00;99.90;;;;;;6239675;23;20384;-73
2022/12/08 16:20:54;;;;;;;13.93;12.90;;;5.00;99.90;;;;;;6241388;23;20392;-73
2022/12/08 16:23:21;;;;;;;11.30;10.60;;;5.00;99.90;;;;;;6240961;23;20917;-72
2022/12/08 16:25:48;;;;;;;12.63;11.53;;;5.00;99.90;;;;;;6241001;23;20473;-73
2022/12/08 16:28:14;;;;;;;11.87;10.87;;;5.00;99.90;;;;;;6241320;23;20452;-73
2022/12/08 16:30:41;;;;;;;12.27;11.43;;;5.00;99.90;;;;;;6241267;23;20403;-73
2022/12/08 16:33:09;;;;;;;11.43;10.63;;;5.10;99.90;;;;;;6241156;23;20403;-73
2022/12/08 16:35:36;;;;;;;13.13;12.13;;;5.10;99.90;;;;;;6241146;23;20423;-72
2022/12/08 16:38:04;;;;;;;13.53;12.53;;;4.90;99.90;;;;;;6241692;23;20407;-73
2022/12/08 16:40:31;;;;;;;12.80;11.80;;;4.80;99.90;;;;;;6241450;23;20487;-73
2022/12/08 16:42:57;;;;;;;13.93;12.97;;;4.80;99.90;;;;;;6240869;23;20407;-73
2022/12/08 16:45:26;;;;;;;13.27;12.37;;;4.80;99.90;;;;;;6241401;23;20410;-74
2022/12/08 16:47:54;;;;;;;14.87;13.77;;;4.70;99.90;;;;;;6241017;23;20192;-72
2022/12/08 16:50:23;;;;;;;14.97;13.87;;;4.70;99.90;;;;;;6241097;23;20431;-73
2022/12/08 16:52:56;;;;;;;14.43;13.40;;;4.70;99.90;;;;;;6240575;23;20403;-73
2022/12/08 16:55:24;;;;;;;13.37;12.43;;;4.70;99.90;;;;;;6241029;23;20685;-73
2022/12/08 16:57:51;;;;;;;13.70;12.63;;;4.60;99.90;;;;;;6241086;23;20400;-72
2022/12/08 17:00:20;;;;;;;13.63;12.70;;;4.60;99.90;;;;;;6241321;23;20754;-72
2022/12/08 17:02:47;;;;;;;13.93;12.90;;;4.50;99.90;;;;;;6241314;23;20433;-73
2022/12/08 17:05:15;;;;;;;14.27;13.37;;;4.50;99.90;;;;;;6240954;23;20411;-73
2022/12/08 17:07:43;;;;;;;13.40;12.60;;;4.50;99.90;;;;;;6240960;23;20447;-72
2022/12/08 17:10:12;;;;;;;15.73;14.43;;;4.50;99.90;;;;;;6240522;23;20415;-73
2022/12/08 17:12:41;;;;;;;14.67;13.50;;;4.50;99.90;;;;;;6240551;22;20408;-73
2022/12/08 17:15:12;;;;;;;15.57;14.40;;;4.50;99.90;;;;;;6240885;23;20413;-73
2022/12/08 17:17:39;;;;;;;16.27;14.53;;;4.50;99.90;;;;;;6240518;22;20487;-73
2022/12/08 17:20:09;;;;;;;14.60;13.60;;;4.50;99.90;;;;;;6240687;23;20899;-72
2022/12/08 17:22:36;;;;;;;14.27;13.13;;;4.50;99.90;;;;;;6241037;23;20412;-73
2022/12/08 17:25:03;;;;;;;15.47;14.27;;;4.50;99.90;;;;;;6241122;23;20437;-73
2022/12/08 17:27:30;;;;;;;16.40;14.73;;;4.50;99.90;;;;;;6241119;23;20433;-72
2022/12/08 17:29:58;;;;;;;16.43;15.23;;;4.50;99.90;;;;;;6240896;23;20419;-74
2022/12/08 17:32:25;;;;;;;15.13;14.00;;;4.50;99.90;;;;;;6240547;23;20407;-73
2022/12/08 17:34:52;;;;;;;15.00;13.77;;;4.50;99.90;;;;;;6240575;23;20434;-73
2022/12/08 17:37:19;;;;;;;15.07;14.07;;;4.50;99.90;;;;;;6241917;23;20938;-72
2022/12/08 17:39:46;;;;;;;16.00;14.80;;;4.40;99.90;;;;;;6243332;23;20418;-72
2022/12/08 17:42:13;;;;;;;14.77;13.23;;;4.40;99.90;;;;;;6242601;23;20899;-73
2022/12/08 17:44:39;;;;;;;14.87;13.77;;;4.40;99.90;;;;;;6242478;23;20404;-73
2022/12/08 17:47:08;;;;;;;15.23;13.80;;;4.50;99.90;;;;;;6242973;23;20445;-72
2022/12/08 17:49:34;;;;;;;14.60;13.50;;;4.60;99.90;;;;;;6243035;23;20408;-72
2022/12/08 17:52:04;;;;;;;13.43;12.53;;;4.60;99.90;;;;;;6243257;23;20739;-72
2022/12/08 17:54:31;;;;;;;15.23;13.93;;;4.50;99.90;;;;;;6243147;22;20704;-72
2022/12/08 17:56:57;;;;;;;14.30;13.40;;;4.50;99.90;;;;;;6242430;23;20404;-73
2022/12/08 17:59:25;;;;;;;14.60;13.60;;;4.50;99.90;;;;;;6242732;23;20418;-73
2022/12/08 18:01:52;;;;;;;14.10;13.23;;;4.60;99.90;;;;;;6242204;23;20890;-73
2022/12/08 18:04:21;;;;;;;15.17;14.17;;;4.50;99.90;;;;;;6243044;23;20436;-72
2022/12/08 18:06:48;;;;;;;16.30;15.07;;;4.50;99.90;;;;;;6242510;23;20404;-73
2022/12/08 18:09:15;;;;;;;16.10;14.80;;;4.50;99.90;;;;;;6242439;23;20403;-72
2022/12/08 18:11:42;;;;;;;13.90;13.00;;;4.60;99.90;;;;;;6242727;22;20427;-73
2022/12/08 18:14:10;;;;;;;14.23;13.43;;;4.60;99.90;;;;;;6242633;23;20407;-72
2022/12/08 18:16:38;;;;;;;14.30;13.40;;;4.50;99.90;;;;;;6242436;23;20399;-72
2022/12/08 18:19:05;;;;;;;14.97;13.90;;;4.50;99.90;;;;;;6242722;23;20407;-73
2022/12/08 18:21:34;;;;;;;14.27;13.07;;;4.60;99.90;;;;;;6243043;22;20766;-72
2022/12/08 18:24:01;;;;;;;15.10;14.00;;;4.50;99.90;;;;;;6243092;23;20693;-72
2022/12/08 18:26:29;;;;;;;15.20;14.00;;;4.60;99.90;;;;;;6242255;23;20717;-74
2022/12/08 18:28:56;;;;;;;15.27;14.17;;;4.50;99.90;;;;;;6242286;23;20462;-72
2022/12/08 18:31:24;;;;;;;13.77;12.97;;;4.50;99.90;;;;;;6242470;23;20706;-71
2022/12/08 18:33:52;;;;;;;13.70;12.67;;;4.40;99.90;;;;;;6242230;23;20913;-71
2022/12/08 18:36:20;;;;;;;16.97;15.50;;;4.40;99.90;;;;;;6242474;23;20904;-71
2022/12/08 18:38:49;;;;;;;15.50;14.40;;;4.40;99.90;;;;;;6243130;23;20404;-71
2022/12/08 18:41:18;;;;;;;14.53;13.43;;;4.40;99.90;;;;;;6242337;23;20909;-73
2022/12/08 18:43:45;;;;;;;15.43;14.03;;;4.50;99.90;;;;;;6242166;22;20921;-73
2022/12/08 18:46:14;;;;;;;14.93;13.97;;;4.50;99.90;;;;;;6242133;23;20404;-72
2022/12/08 18:48:42;;;;;;;16.53;15.30;;;4.40;99.90;;;;;;6241947;23;20435;-72
2022/12/08 18:51:10;;;;;;;14.47;13.17;;;4.40;99.90;;;;;;6241868;22;20410;-72
2022/12/08 18:53:38;;;;;;;13.33;12.60;;;4.40;99.90;;;;;;6242001;23;20465;-73
2022/12/08 18:56:07;;;;;;;14.53;13.43;;;4.30;99.90;;;;;;6242479;23;20408;-72
2022/12/08 18:58:34;;;;;;;14.53;13.33;;;4.40;99.90;;;;;;6242120;23;20410;-73
2022/12/08 19:01:01;;;;;;;13.93;12.80;;;4.30;99.90;;;;;;6242421;23;20414;-72
2022/12/08 19:03:28;;;;;;;15.50;14.30;;;4.30;99.90;;;;;;6242058;23;20450;-72
2022/12/08 19:06:02;;;;;;;14.47;13.37;;;4.30;99.90;;;;;;6242022;23;20404;-71
2022/12/08 19:08:28;;;;;;;14.70;13.50;;;4.30;99.90;;;;;;6242047;23;20427;-71
2022/12/08 19:10:55;;;;;;;13.93;12.83;;;4.30;99.90;;;;;;6242164;23;20427;-74
2022/12/08 19:13:23;;;;;;;15.10;13.90;;;4.20;99.90;;;;;;6242091;23;20406;-73
2022/12/08 19:15:50;;;;;;;15.10;14.00;;;4.10;99.90;;;;;;6241828;23;20404;-73
2022/12/08 19:18:17;;;;;;;15.60;14.30;;;4.00;99.90;;;;;;6242421;22;20404;-72
2022/12/08 19:20:44;;;;;;;15.63;14.13;;;3.90;99.90;;;;;;6241602;23;20414;-73
2022/12/08 19:23:11;;;;;;;14.93;13.60;;;3.80;99.90;;;;;;6241900;23;20799;-73
2022/12/08 19:25:38;;;;;;;15.47;14.30;;;3.80;99.90;;;;;;6241421;23;20438;-73
2022/12/08 19:28:05;;;;;;;16.30;14.70;;;3.70;99.90;;;;;;6241890;23;20802;-73
2022/12/08 19:30:33;;;;;;;15.90;14.50;;;3.60;99.90;;;;;;6241932;23;20480;-73
2022/12/08 19:33:00;;;;;;;16.03;14.83;;;3.40;99.90;;;;;;6242160;23;20411;-73
2022/12/08 19:35:27;;;;;;;18.20;15.90;;;3.30;99.90;;;;;;6241901;23;20446;-73
2022/12/08 19:37:54;;;;;;;17.50;16.17;;;3.10;99.90;;;;;;6241377;23;20964;-73
2022/12/08 19:45:51;;;;;;;15.33;14.33;;;2.70;99.90;;;;;;6241730;23;20455;-73
2022/12/08 19:48:18;;;;;;;17.10;15.90;;;2.50;99.90;;;;;;6241792;23;20447;-72
2022/12/08 19:50:44;;;;;;;16.17;15.07;;;2.40;99.90;;;;;;6241801;23;20400;-73
2022/12/08 19:53:13;;;;;;;16.07;14.83;;;2.30;99.90;;;;;;6241629;23;20413;-74
2022/12/08 19:55:40;;;;;;;16.87;15.50;;;2.10;99.90;;;;;;6241560;23;20403;-73
2022/12/08 19:58:08;;;;;;;17.57;16.07;;;2.10;99.90;;;;;;6241084;23;20900;-73
2022/12/08 20:00:36;;;;;;;18.00;16.60;;;1.90;99.90;;;;;;6241250;23;20411;-73
2022/12/08 20:03:05;;;;;;;21.40;18.27;;;1.80;99.90;;;;;;6241631;23;20424;-73
2022/12/08 20:05:33;;;;;;;17.57;16.27;;;1.70;99.90;;;;;;6241808;23;20418;-73
2022/12/08 20:08:00;;;;;;;18.13;16.67;;;1.60;99.90;;;;;;6241866;23;20760;-73
2022/12/08 20:10:29;;;;;;;18.47;16.97;;;1.40;99.90;;;;;;6239859;23;20783;-73
2022/12/08 20:13:39;;;;;;;18.17;16.77;;;1.40;99.90;;;;;;6241388;23;20390;-73
2022/12/08 20:15:44;;;;;;;19.27;17.80;;;1.30;99.90;;;;;;6240802;23;20400;-73
2022/12/08 20:18:13;;;;;;;18.63;17.17;;;1.10;99.90;;;;;;6239698;23;20399;-73
2022/12/08 20:20:41;;;;;;;19.20;17.70;;;1.00;99.90;;;;;;6241654;23;20404;-73
2022/12/08 20:23:08;;;;;;;18.70;17.00;;;1.00;99.90;;;;;;6241706;23;20522;-72
2022/12/08 20:25:37;;;;;;;19.27;17.67;;;0.90;99.90;;;;;;6241647;23;20439;-72
2022/12/08 20:28:04;;;;;;;19.47;17.83;;;0.90;99.90;;;;;;6242197;23;20442;-72
2022/12/08 20:30:31;;;;;;;18.87;17.37;;;0.90;99.90;;;;;;6241833;23;20406;-74
2022/12/08 20:32:58;;;;;;;19.23;17.57;;;0.90;99.90;;;;;;6242115;23;20715;-72
2022/12/08 20:35:26;;;;;;;19.70;18.00;;;0.80;99.90;;;;;;6241766;23;20907;-72
2022/12/08 20:37:53;;;;;;;20.47;18.87;;;0.80;99.90;;;;;;6241806;22;20414;-72
2022/12/08 20:40:20;;;;;;;22.77;19.60;;;0.70;99.90;;;;;;6242009;23;20411;-73
2022/12/08 20:42:47;;;;;;;21.37;19.37;;;0.80;99.90;;;;;;6241638;23;20458;-73
2022/12/08 20:45:13;;;;;;;19.43;18.03;;;0.80;99.90;;;;;;6241909;23;20728;-72
2022/12/08 20:47:40;;;;;;;22.50;20.63;;;0.80;99.90;;;;;;6241661;23;20889;-72
2022/12/08 20:50:08;;;;;;;21.30;19.50;;;0.80;99.90;;;;;;6241946;23;20419;-73
2022/12/08 20:52:37;;;;;;;21.63;19.73;;;0.70;99.90;;;;;;6241618;23;20417;-73
2022/12/08 20:55:04;;;;;;;20.40;18.60;;;0.70;99.90;;;;;;6241798;23;20408;-72
2022/12/08 20:57:32;;;;;;;24.97;22.90;;;0.70;99.90;;;;;;6242079;23;20738;-72
2022/12/08 20:59:59;;;;;;;23.63;21.50;;;0.70;99.90;;;;;;6241386;23;20520;-72
2022/12/08 21:02:25;;;;;;;20.80;19.10;;;0.70;99.90;;;;;;6241894;23;20428;-72
2022/12/08 21:04:52;;;;;;;22.53;20.53;;;0.60;99.90;;;;;;6241608;23;20421;-72
2022/12/08 21:07:28;;;;;;;22.07;20.07;;;0.60;99.90;;;;;;6242295;23;20408;-76
2022/12/08 21:09:56;;;;;;;22.47;20.37;;;0.70;99.90;;;;;;6239118;23;20409;-75
2022/12/08 21:12:23;;;;;;;22.63;20.63;;;0.70;99.90;;;;;;6241295;23;20919;-77
2022/12/08 21:14:50;;;;;;;21.83;19.73;;;0.70;99.90;;;;;;6242146;23;20404;-73
2022/12/08 21:17:16;;;;;;;21.17;19.37;;;0.60;99.90;;;;;;6242365;23;20459;-72
2022/12/08 21:19:43;;;;;;;23.63;21.63;;;0.50;99.90;;;;;;6241740;23;20399;-72
2022/12/08 21:22:10;;;;;;;25.17;22.87;;;0.50;99.90;;;;;;6242157;23;20433;-71
2022/12/08 21:24:37;;;;;;;25.07;22.77;;;0.50;99.90;;;;;;6241707;23;20400;-72
2022/12/08 21:27:05;;;;;;;24.60;22.07;;;0.50;99.90;;;;;;6241677;23;20438;-71
2022/12/08 21:29:32;;;;;;;26.67;22.00;;;0.50;99.90;;;;;;6242137;23;20440;-72
2022/12/08 21:31:59;;;;;;;25.43;22.87;;;0.50;99.90;;;;;;6241133;23;20422;-72
2022/12/08 21:34:30;;;;;;;24.23;22.00;;;0.40;99.90;;;;;;6241611;23;20460;-73
2022/12/08 21:36:57;;;;;;;23.10;21.13;;;0.40;99.90;;;;;;6241895;22;20437;-73
2022/12/08 21:39:23;;;;;;;26.03;23.57;;;0.30;99.90;;;;;;6241176;23;20515;-73
2022/12/08 21:44:36;;;;;;;24.20;21.93;;;0.20;99.90;;;;;;6241474;23;20395;-71
2022/12/08 21:47:03;;;;;;;22.60;20.60;;;0.20;99.90;;;;;;6241906;23;20428;-72
2022/12/08 21:49:30;;;;;;;22.10;19.80;;;0.20;99.90;;;;;;6241907;23;20461;-73
2022/12/08 21:51:57;;;;;;;23.43;20.90;;;0.30;99.90;;;;;;6241125;23;20471;-72
2022/12/08 21:54:24;;;;;;;22.47;20.57;;;0.30;99.90;;;;;;6241551;23;20418;-72
2022/12/08 21:56:51;;;;;;;22.20;20.23;;;0.30;99.90;;;;;;6241288;23;20501;-73
2022/12/08 21:59:18;;;;;;;21.47;19.67;;;0.40;99.90;;;;;;6241055;23;20404;-73
2022/12/08 22:01:46;;;;;;;24.07;21.70;;;0.40;99.90;;;;;;6242026;23;20407;-73
2022/12/08 22:04:16;;;;;;;23.27;20.83;;;0.40;99.90;;;;;;6241394;23;20459;-72
2022/12/08 22:06:43;;;;;;;24.90;22.53;;;0.40;99.90;;;;;;6241333;23;20414;-72
2022/12/08 22:09:12;;;;;;;23.73;21.57;;;0.40;99.90;;;;;;6241439;23;20468;-73
2022/12/08 22:11:38;;;;;;;21.37;19.60;;;0.30;99.90;;;;;;6240774;23;20405;-72
2022/12/08 22:14:05;;;;;;;21.60;19.80;;;0.30;99.90;;;;;;6241439;23;20406;-72
2022/12/08 22:16:32;;;;;;;21.17;19.27;;;0.20;99.90;;;;;;6241814;23;20407;-72
2022/12/08 22:19:00;;;;;;;21.73;19.83;;;0.20;99.90;;;;;;6241498;23;20438;-72
2022/12/08 22:21:27;;;;;;;23.57;21.47;;;0.20;99.90;;;;;;6241523;23;20411;-74
2022/12/08 22:23:54;;;;;;;24.60;22.10;;;0.10;99.90;;;;;;6242904;23;20409;-72
2022/12/08 22:26:21;;;;;;;22.97;21.07;;;0.10;99.90;;;;;;6242736;23;20504;-71
2022/12/08 22:28:47;;;;;;;23.67;21.63;;;0.20;99.90;;;;;;6242971;23;20502;-72
2022/12/08 22:31:17;;;;;;;22.90;21.20;;;0.10;99.90;;;;;;6243143;23;20406;-73
2022/12/08 22:33:44;;;;;;;30.83;22.13;;;0.10;99.90;;;;;;6243084;23;20475;-73